createdAt,value
2023-04-18T04:40:46.292Z,100079.09
2023-04-18T04:43:50.016Z,100079.09
2023-04-18T04:46:52.631Z,100086.34
2023-04-18T04:49:55.235Z,100091.28
2023-04-18T04:52:57.851Z,100095.38
2023-04-18T04:56:00.437Z,100096.94
2023-04-18T04:59:13.166Z,100101.03
2023-04-18T05:02:15.793Z,100102.69
2023-04-18T05:05:18.422Z,100109.03
2023-04-18T05:08:21.029Z,100099.41
2023-04-18T05:11:23.723Z,100106.78
2023-04-18T05:14:26.491Z,100109.56
2023-04-18T05:17:29.107Z,100116.34
2023-04-18T05:20:31.698Z,100111.00
2023-04-18T05:23:37.182Z,100108.50
2023-04-18T05:26:40.050Z,100109.81
2023-04-18T05:29:42.569Z,100111.72
2023-04-18T05:32:45.180Z,100107.00
2023-04-18T05:35:47.802Z,100108.25
2023-04-18T05:38:50.663Z,100116.38
2023-04-18T05:41:53.409Z,100107.12
2023-04-18T05:44:56.113Z,100112.16
2023-04-18T05:47:58.711Z,100123.31
2023-04-18T05:51:02.132Z,100126.25
2023-04-18T05:54:04.750Z,100122.56
2023-04-18T05:57:07.300Z,100116.78
2023-04-18T06:00:11.997Z,100118.16
2023-04-18T06:03:14.691Z,100117.47
2023-04-18T06:06:17.371Z,100127.38
2023-04-18T06:09:19.950Z,100118.31
2023-04-18T06:12:22.524Z,100123.25
2023-04-18T06:15:25.232Z,100134.31
2023-04-18T06:18:27.757Z,100128.19
2023-04-18T06:21:30.359Z,100123.59
2023-04-18T06:24:32.937Z,100123.16
2023-04-18T06:27:36.079Z,100135.91
2023-04-18T06:30:38.644Z,100132.84
2023-04-18T06:33:41.282Z,100136.75
2023-04-18T06:36:43.915Z,100134.84
2023-04-18T06:39:46.624Z,100137.19
2023-04-18T06:42:49.260Z,100137.38
2023-04-18T06:45:51.885Z,100136.56
2023-04-18T06:48:54.405Z,100145.78
2023-04-18T06:51:57.013Z,100147.94
2023-04-18T06:54:59.562Z,100140.56
2023-04-18T06:58:02.123Z,100149.00
2023-04-18T07:01:04.679Z,100149.31
2023-04-18T07:04:07.416Z,100144.22
2023-04-18T07:07:11.365Z,100145.87
2023-04-18T07:10:13.965Z,100142.97
2023-04-18T07:13:16.746Z,100151.91
2023-04-18T07:16:19.330Z,100158.50
2023-04-18T07:19:22.007Z,100153.38
2023-04-18T07:22:24.630Z,100151.25
2023-04-18T07:25:27.419Z,100153.63
2023-04-18T07:28:31.236Z,100149.88
2023-04-18T07:31:34.438Z,100149.88
2023-04-18T07:34:37.676Z,100164.94
2023-04-18T07:37:40.604Z,100172.28
2023-04-18T07:40:45.685Z,100166.72
2023-04-18T07:43:52.869Z,100171.72
2023-04-18T07:46:55.560Z,100173.56
2023-04-18T07:49:58.122Z,100171.72
2023-04-18T07:53:01.564Z,100169.47
2023-04-18T07:56:04.249Z,100166.84
2023-04-18T07:59:06.881Z,100173.69
2023-04-18T08:02:09.801Z,100167.56
2023-04-18T08:05:12.398Z,100179.63
2023-04-18T08:08:15.262Z,100174.62
2023-04-18T08:11:17.813Z,100172.16
2023-04-18T08:14:20.444Z,100183.97
2023-04-18T08:17:23.629Z,100181.12
2023-04-18T08:20:27.127Z,100173.22
2023-04-18T08:23:30.759Z,100177.91
2023-04-18T08:26:33.406Z,100179.81
2023-04-18T08:29:36.209Z,100182.47
2023-04-18T08:32:38.803Z,100192.66
2023-04-18T08:35:42.019Z,100190.00
2023-04-18T08:38:44.662Z,100194.16
2023-04-18T08:41:49.354Z,100190.72
2023-04-18T08:44:52.727Z,100186.59
2023-04-18T08:47:56.824Z,100197.66
2023-04-18T08:50:59.639Z,100189.41
2023-04-18T08:54:04.667Z,100192.94
2023-04-18T08:57:07.617Z,100196.75
2023-04-18T09:00:11.930Z,100198.50
2023-04-18T09:03:15.754Z,100192.63
2023-04-18T09:06:21.055Z,100194.00
2023-04-18T09:09:27.799Z,100194.34
2023-04-18T09:12:30.464Z,100201.97
2023-04-18T09:15:33.541Z,100195.44
2023-04-18T09:18:36.544Z,100205.28
2023-04-18T09:21:44.703Z,100193.75
2023-04-18T09:24:55.910Z,100187.34
2023-04-18T09:28:01.438Z,100197.25
2023-04-18T09:31:14.651Z,100194.38
2023-04-18T09:34:21.427Z,100197.69
2023-04-18T09:37:26.832Z,100189.66
2023-04-18T09:40:29.572Z,100198.28
2023-04-18T09:43:32.344Z,100199.53
2023-04-18T09:46:35.132Z,100193.16
2023-04-18T09:49:37.986Z,100203.63
2023-04-18T09:52:41.498Z,100204.88
2023-04-18T09:55:44.044Z,100206.78
2023-04-18T09:58:47.480Z,100195.56
2023-04-18T10:01:50.116Z,100187.62
2023-04-18T10:04:53.396Z,100185.72
2023-04-18T10:07:56.066Z,100197.41
2023-04-18T10:10:58.852Z,100193.09
2023-04-18T10:14:07.074Z,100202.75
2023-04-18T10:17:10.255Z,100206.87
2023-04-18T10:20:18.143Z,100215.66
2023-04-18T10:23:37.218Z,100214.00
2023-04-18T10:26:47.060Z,100200.25
2023-04-18T10:29:53.806Z,100190.91
2023-04-18T10:32:56.446Z,100192.66
2023-04-18T10:36:12.789Z,100201.53
2023-04-18T10:39:22.600Z,100192.09
2023-04-18T10:42:54.120Z,100186.81
2023-04-18T10:46:23.849Z,100209.59
2023-04-18T10:49:33.992Z,100191.06
2023-04-18T10:52:36.519Z,100193.47
2023-04-18T10:55:39.890Z,100193.69
2023-04-18T10:58:43.299Z,100186.06
2023-04-18T11:01:45.886Z,100194.75
2023-04-18T11:04:53.805Z,100186.19
2023-04-18T11:07:56.447Z,100198.81
2023-04-18T11:10:59.751Z,100204.47
2023-04-18T11:14:02.705Z,100193.13
2023-04-18T11:17:22.087Z,100202.09
2023-04-18T11:20:24.826Z,100196.97
2023-04-18T11:23:27.633Z,100194.13
2023-04-18T11:26:32.009Z,100207.38
2023-04-18T11:29:36.289Z,100198.88
2023-04-18T11:32:39.305Z,100196.66
2023-04-18T11:35:43.657Z,100200.38
2023-04-18T11:38:46.342Z,100203.31
2023-04-18T11:41:52.059Z,100203.56
2023-04-18T11:44:54.784Z,100199.69
2023-04-18T11:47:58.866Z,100207.75
2023-04-18T11:51:01.978Z,100196.37
2023-04-18T11:54:04.731Z,100198.47
2023-04-18T11:57:18.440Z,100189.91
2023-04-18T12:00:33.056Z,100186.63
2023-04-18T12:03:36.282Z,100196.00
2023-04-18T12:06:50.263Z,100194.44
2023-04-18T12:09:53.001Z,100206.44
2023-04-18T12:12:58.766Z,100192.50
2023-04-18T12:16:02.319Z,100189.25
2023-04-18T12:19:07.401Z,100208.56
2023-04-18T12:22:10.357Z,100197.16
2023-04-18T12:25:14.093Z,100211.03
2023-04-18T12:28:16.999Z,100197.22
2023-04-18T12:31:19.774Z,100198.94
2023-04-18T12:34:24.142Z,100203.34
2023-04-18T12:37:32.409Z,100197.00
2023-04-18T12:40:35.372Z,100192.72
2023-04-18T12:43:38.297Z,100197.94
2023-04-18T12:50:03.613Z,100199.59
2023-04-18T12:53:12.630Z,100195.31
2023-04-18T12:56:17.844Z,100201.94
2023-04-18T12:59:25.134Z,100199.81
2023-04-18T13:02:32.947Z,100206.00
2023-04-18T13:05:40.388Z,100202.66
2023-04-18T13:08:44.642Z,100200.16
2023-04-18T13:11:52.969Z,100195.28
2023-04-18T13:14:58.203Z,100195.63
2023-04-18T13:18:06.943Z,100205.72
2023-04-18T13:21:17.538Z,100211.47
2023-04-18T13:24:21.485Z,100210.81
2023-04-18T13:27:24.515Z,100215.53
2023-04-18T13:30:27.213Z,100220.31
2023-04-18T13:33:29.827Z,100223.28
2023-04-18T13:36:34.842Z,100205.16
2023-04-18T13:39:38.016Z,100206.25
2023-04-18T13:42:40.563Z,100207.16
2023-04-18T13:45:43.262Z,100209.72
2023-04-18T13:48:45.958Z,100203.28
2023-04-18T13:51:50.512Z,100205.88
2023-04-18T13:54:53.193Z,100204.91
2023-04-18T13:57:55.918Z,100211.47
2023-04-18T14:00:58.540Z,100197.03
2023-04-18T14:04:01.392Z,100201.69
2023-04-18T14:07:04.119Z,100194.47
2023-04-18T14:10:07.142Z,100189.44
2023-04-18T14:13:09.718Z,100192.50
2023-04-18T14:16:12.528Z,100203.19
2023-04-18T14:19:15.200Z,100191.56
2023-04-18T14:22:17.891Z,100206.97
2023-04-18T14:25:20.662Z,100207.09
2023-04-18T14:28:25.143Z,100189.06
2023-04-18T14:31:28.378Z,100195.47
2023-04-18T14:34:33.302Z,100200.91
2023-04-18T14:37:38.541Z,100198.62
2023-04-18T14:40:41.160Z,100197.56
2023-04-18T14:43:43.832Z,100190.75
2023-04-18T14:46:46.424Z,100189.94
2023-04-18T14:49:49.068Z,100202.25
2023-04-18T14:52:51.742Z,100198.50
2023-04-18T14:55:54.471Z,100201.94
2023-04-18T14:58:57.329Z,100192.87
2023-04-18T15:02:00.140Z,100196.59
2023-04-18T15:05:02.985Z,100196.34
2023-04-18T15:08:07.248Z,100199.72
2023-04-18T15:11:10.675Z,100195.00
2023-04-18T15:14:13.427Z,100200.16
2023-04-18T15:17:16.331Z,100197.78
2023-04-18T15:20:19.624Z,100200.25
2023-04-18T15:23:22.983Z,100195.16
